createdAt,value
2019-04-28T00:02:11.932Z,9.50
2019-04-28T00:04:41.558Z,9.40
2019-04-28T00:07:11.939Z,9.40
2019-04-28T00:09:41.473Z,9.40
2019-04-28T00:12:11.472Z,9.50
2019-04-28T00:14:41.823Z,9.50
2019-04-28T00:17:11.241Z,9.50
2019-04-28T00:19:40.902Z,9.50
2019-04-28T00:22:11.718Z,9.40
2019-04-28T00:24:44.423Z,9.50
2019-04-28T00:27:12.991Z,9.50
2019-04-28T00:29:46.090Z,9.40
2019-04-28T00:32:12.043Z,9.40
2019-04-28T00:34:41.181Z,9.40
2019-04-28T00:37:21.139Z,9.40
2019-04-28T00:39:50.963Z,9.40
2019-04-28T00:42:19.528Z,9.40
2019-04-28T00:44:48.006Z,9.40
2019-04-28T00:47:16.433Z,9.40
2019-04-28T00:49:47.982Z,9.40
2019-04-28T00:52:17.746Z,9.40
2019-04-28T00:54:47.106Z,9.30
2019-04-28T00:57:16.130Z,9.30
2019-04-28T00:59:54.244Z,9.30
2019-04-28T01:02:30.996Z,9.40
2019-04-28T01:05:01.269Z,9.30
2019-04-28T01:07:31.317Z,9.30
2019-04-28T01:10:01.415Z,9.20
2019-04-28T01:12:31.069Z,9.20
2019-04-28T01:15:04.040Z,9.20
2019-04-28T01:17:49.634Z,9.20
2019-04-28T01:20:25.642Z,9.10
2019-04-28T01:22:54.134Z,9.10
2019-04-28T01:25:22.534Z,9.10
2019-04-28T01:27:52.586Z,9.10
2019-04-28T01:30:24.681Z,9.20
2019-04-28T01:33:00.867Z,9.10
2019-04-28T01:35:29.663Z,9.20
2019-04-28T01:38:00.140Z,9.20
2019-04-28T01:40:30.444Z,9.10
2019-04-28T01:42:59.804Z,9.10
2019-04-28T01:45:30.058Z,9.20
2019-04-28T01:48:00.496Z,9.20
2019-04-28T01:50:30.018Z,9.20
2019-04-28T01:52:59.789Z,9.20
2019-04-28T01:55:29.829Z,9.20
2019-04-28T01:57:59.856Z,9.20
2019-04-28T02:00:29.738Z,9.10
2019-04-28T02:03:00.177Z,9.20
2019-04-28T02:05:29.989Z,9.30
2019-04-28T02:08:00.386Z,9.30
2019-04-28T02:10:30.218Z,9.30
2019-04-28T02:13:00.349Z,9.30
2019-04-28T02:15:30.213Z,9.20
2019-04-28T02:18:00.099Z,9.10
2019-04-28T02:20:30.176Z,9.10
2019-04-28T02:23:00.912Z,9.10
2019-04-28T02:25:30.961Z,9.10
2019-04-28T02:28:00.234Z,9.10
2019-04-28T02:30:42.315Z,9.10
2019-04-28T02:33:01.671Z,9.10
2019-04-28T02:35:31.447Z,9.20
2019-04-28T02:38:01.173Z,9.20
2019-04-28T02:40:30.548Z,9.00
2019-04-28T02:43:01.242Z,9.10
2019-04-28T02:45:31.643Z,9.10
2019-04-28T02:48:02.096Z,9.00
2019-04-28T02:50:38.064Z,9.10
2019-04-28T02:53:23.123Z,9.20
2019-04-28T02:55:51.611Z,9.10
2019-04-28T02:58:22.380Z,9.20
2019-04-28T03:01:04.927Z,9.20
2019-04-28T03:03:21.341Z,9.30
2019-04-28T03:05:51.246Z,9.30
2019-04-28T03:08:21.431Z,9.40
2019-04-28T03:10:51.014Z,9.40
2019-04-28T03:13:20.900Z,9.40
2019-04-28T03:15:51.547Z,9.40
2019-04-28T03:18:21.446Z,9.40
2019-04-28T03:20:51.543Z,9.40
2019-04-28T03:23:20.828Z,9.40
2019-04-28T03:25:51.277Z,9.40
2019-04-28T03:28:21.620Z,9.40
2019-04-28T03:30:54.592Z,9.50
2019-04-28T03:33:26.197Z,9.50
2019-04-28T03:35:55.119Z,9.50
2019-04-28T03:38:23.587Z,9.50
2019-04-28T03:40:51.997Z,9.60
2019-04-28T03:43:21.167Z,9.50
2019-04-28T03:46:03.431Z,9.40
2019-04-28T03:48:33.767Z,9.40
2019-04-28T03:51:02.690Z,9.40
2019-04-28T03:53:32.001Z,9.30
2019-04-28T03:56:01.630Z,9.40
2019-04-28T03:58:31.268Z,9.40
2019-04-28T04:01:03.131Z,9.40
2019-04-28T04:03:31.242Z,9.30
2019-04-28T04:06:00.724Z,9.30
2019-04-28T04:08:30.938Z,9.30
2019-04-28T04:11:20.312Z,9.40
2019-04-28T04:13:56.405Z,9.40
2019-04-28T04:16:35.533Z,9.40
2019-04-28T04:19:05.814Z,9.40
2019-04-28T04:21:34.359Z,9.30
2019-04-28T04:24:03.303Z,9.30
2019-04-28T04:26:33.615Z,9.20
2019-04-28T04:29:02.953Z,9.30
2019-04-28T04:31:32.045Z,9.40
2019-04-28T04:34:03.296Z,9.20
2019-04-28T04:36:31.548Z,9.20
2019-04-28T04:39:01.875Z,9.30
2019-04-28T04:41:30.744Z,9.30
2019-04-28T04:44:01.132Z,9.30
2019-04-28T04:46:31.348Z,9.40
2019-04-28T04:49:01.125Z,9.40
2019-04-28T04:51:30.960Z,9.40
2019-04-28T04:54:01.221Z,9.50
2019-04-28T04:56:30.479Z,9.50
2019-04-28T04:59:00.348Z,9.40
2019-04-28T05:01:47.390Z,9.40
2019-04-28T05:04:26.863Z,9.30
2019-04-28T05:06:55.832Z,9.20
2019-04-28T05:09:24.303Z,9.30
2019-04-28T05:11:52.744Z,9.40
2019-04-28T05:14:21.149Z,9.40
2019-04-28T05:16:49.833Z,9.40
2019-04-28T05:19:19.906Z,9.40
2019-04-28T05:21:49.874Z,9.40
2019-04-28T05:24:20.442Z,9.50
2019-04-28T05:26:51.600Z,9.60
2019-04-28T05:29:26.539Z,9.70
2019-04-28T05:31:50.598Z,9.80
2019-04-28T05:34:23.782Z,9.90
2019-04-28T05:36:51.015Z,9.90
2019-04-28T05:39:19.829Z,10.00
2019-04-28T05:41:50.296Z,10.00
2019-04-28T05:44:20.103Z,10.20
2019-04-28T05:46:50.386Z,10.20
2019-04-28T05:49:33.743Z,10.30
2019-04-28T05:52:07.313Z,10.30
2019-04-28T05:54:49.629Z,10.40
2019-04-28T05:57:22.598Z,10.50
2019-04-28T05:59:53.384Z,10.50
2019-04-28T06:02:55.575Z,10.60
2019-04-28T06:05:12.127Z,10.60
2019-04-28T06:07:45.028Z,10.70
2019-04-28T06:10:14.970Z,10.60
2019-04-28T06:12:43.369Z,10.50
2019-04-28T06:15:12.091Z,10.60
2019-04-28T06:17:40.632Z,10.70
2019-04-28T06:20:11.406Z,10.70
2019-04-28T06:22:40.337Z,10.70
2019-04-28T06:25:09.165Z,10.80
2019-04-28T06:27:37.612Z,10.90
2019-04-28T06:30:06.969Z,11.00
2019-04-28T06:32:36.087Z,11.10
2019-04-28T06:35:06.322Z,11.10
2019-04-28T06:37:35.169Z,11.20
2019-04-28T06:40:06.703Z,11.20
2019-04-28T06:42:35.906Z,11.20
2019-04-28T06:45:07.376Z,11.30
2019-04-28T06:47:36.010Z,11.50
2019-04-28T06:50:06.381Z,11.50
2019-04-28T06:52:35.151Z,11.60
2019-04-28T06:55:04.929Z,11.60
2019-04-28T06:57:35.256Z,11.50
2019-04-28T07:00:04.968Z,11.40
2019-04-28T07:02:34.205Z,11.50
2019-04-28T07:05:03.110Z,11.60
2019-04-28T07:07:32.256Z,11.60
2019-04-28T07:10:01.769Z,11.60
2019-04-28T07:12:31.288Z,11.60
2019-04-28T07:15:00.362Z,11.60
2019-04-28T07:17:29.386Z,11.70
2019-04-28T07:20:05.890Z,11.80
2019-04-28T07:22:35.055Z,12.00
2019-04-28T07:25:04.469Z,12.10
2019-04-28T07:27:33.089Z,11.90
2019-04-28T07:30:02.482Z,12.10
2019-04-28T07:32:31.162Z,11.90
2019-04-28T07:35:00.706Z,11.90
2019-04-28T07:37:29.544Z,12.00
2019-04-28T07:39:58.263Z,12.10
2019-04-28T07:42:27.482Z,12.10
2019-04-28T07:44:57.468Z,12.20
2019-04-28T07:47:28.175Z,12.10
2019-04-28T07:49:58.091Z,12.10
2019-04-28T07:52:28.823Z,12.20
2019-04-28T07:54:57.920Z,12.40
2019-04-28T07:57:26.709Z,12.60
2019-04-28T07:59:55.124Z,12.80
2019-04-28T08:02:23.862Z,12.70
2019-04-28T08:04:52.275Z,13.00
2019-04-28T08:07:20.694Z,13.10
2019-04-28T08:09:49.105Z,13.10
2019-04-28T08:12:17.535Z,12.90
2019-04-28T08:14:45.921Z,12.80
2019-04-28T08:17:14.324Z,12.80
2019-04-28T08:19:42.750Z,13.10
2019-04-28T08:22:11.192Z,13.50
2019-04-28T08:24:39.778Z,13.70
2019-04-28T08:27:08.300Z,13.70
2019-04-28T08:29:37.085Z,13.80
2019-04-28T08:32:19.449Z,13.70
2019-04-28T08:34:47.877Z,13.70
2019-04-28T08:37:16.283Z,13.40
2019-04-28T08:39:44.799Z,13.00
2019-04-28T08:42:13.199Z,12.70
2019-04-28T08:44:41.651Z,12.10
2019-04-28T08:47:10.392Z,11.70
2019-04-28T08:49:42.333Z,11.00
2019-04-28T08:52:10.850Z,10.20
2019-04-28T08:54:39.592Z,9.50
2019-04-28T08:57:08.178Z,9.10
2019-04-28T08:59:37.040Z,9.10
2019-04-28T09:02:05.632Z,9.10
2019-04-28T09:04:34.262Z,9.20
2019-04-28T09:07:02.836Z,9.30
2019-04-28T09:09:32.499Z,9.40
2019-04-28T09:12:01.734Z,9.50
2019-04-28T09:14:32.070Z,9.60
2019-04-28T09:17:00.823Z,9.70
2019-04-28T09:19:31.393Z,9.90
2019-04-28T09:22:01.481Z,10.10
2019-04-28T09:24:30.470Z,10.30
2019-04-28T09:27:00.218Z,10.60
2019-04-28T09:29:29.381Z,10.90
2019-04-28T09:32:00.058Z,11.30
2019-04-28T09:34:29.032Z,11.70
2019-04-28T09:37:01.033Z,12.00
2019-04-28T09:39:43.533Z,12.40
2019-04-28T09:42:28.941Z,12.80
2019-04-28T09:44:57.956Z,13.30
2019-04-28T09:47:26.946Z,13.60
2019-04-28T09:49:55.692Z,14.00
2019-04-28T09:52:24.106Z,14.30
2019-04-28T09:54:52.664Z,14.40
2019-04-28T09:57:21.073Z,14.60
2019-04-28T09:59:49.468Z,14.60
2019-04-28T10:02:17.890Z,14.80
2019-04-28T10:04:46.298Z,14.90
2019-04-28T10:07:14.693Z,15.10
2019-04-28T10:09:43.156Z,15.30
2019-04-28T10:12:11.621Z,15.60
2019-04-28T10:14:40.566Z,15.80
2019-04-28T10:17:09.588Z,15.80
2019-04-28T10:19:39.119Z,15.80
2019-04-28T10:22:08.052Z,15.60
2019-04-28T10:24:36.668Z,15.60
2019-04-28T10:27:06.339Z,15.60
2019-04-28T10:29:35.107Z,15.50
2019-04-28T10:32:03.874Z,15.70
2019-04-28T10:34:32.830Z,15.70
2019-04-28T10:37:02.655Z,15.60
2019-04-28T10:39:39.912Z,15.60
2019-04-28T10:42:08.544Z,15.60
2019-04-28T10:44:38.940Z,15.80
2019-04-28T10:47:07.881Z,15.80
2019-04-28T10:49:36.750Z,15.80
2019-04-28T10:52:05.566Z,15.70
2019-04-28T10:54:34.818Z,15.60
2019-04-28T10:57:03.624Z,15.50
2019-04-28T10:59:32.176Z,15.20
2019-04-28T11:02:00.879Z,14.90
2019-04-28T11:04:40.324Z,14.50
2019-04-28T11:07:16.500Z,14.50
2019-04-28T11:09:46.619Z,14.60
2019-04-28T11:12:16.739Z,14.90
2019-04-28T11:14:45.151Z,15.40
2019-04-28T11:17:14.403Z,15.80
2019-04-28T11:19:42.834Z,16.10
2019-04-28T11:22:11.334Z,16.30
2019-04-28T11:24:39.945Z,17.00
2019-04-28T11:27:29.994Z,17.90
2019-04-28T11:30:00.680Z,18.70
2019-04-28T11:32:29.834Z,19.60
2019-04-28T11:35:02.172Z,20.90
2019-04-28T11:37:32.042Z,21.20
2019-04-28T11:40:01.925Z,21.00
2019-04-28T11:42:30.813Z,20.30
2019-04-28T11:45:01.532Z,20.10
2019-04-28T11:47:30.355Z,19.70
2019-04-28T11:49:59.671Z,19.40
2019-04-28T11:52:30.181Z,19.20
2019-04-28T11:54:59.804Z,19.40
2019-04-28T11:57:28.749Z,19.60
2019-04-28T11:59:59.465Z,19.30
2019-04-28T12:02:28.645Z,19.40
2019-04-28T12:04:59.520Z,19.70
2019-04-28T12:07:28.680Z,20.90
2019-04-28T12:10:04.577Z,22.00
2019-04-28T12:12:39.873Z,22.20
2019-04-28T12:15:10.019Z,21.70
2019-04-28T12:17:40.177Z,21.20
2019-04-28T12:20:10.418Z,20.60
2019-04-28T12:22:39.361Z,20.20
2019-04-28T12:25:08.346Z,19.80
2019-04-28T12:27:37.128Z,19.50
2019-04-28T12:30:06.593Z,19.20
2019-04-28T12:32:35.780Z,18.90
2019-04-28T12:35:05.787Z,18.50
2019-04-28T12:37:34.397Z,18.20
2019-04-28T12:40:03.678Z,17.90
2019-04-28T12:42:32.864Z,17.60
2019-04-28T12:45:03.266Z,17.30
2019-04-28T12:47:34.191Z,16.70
2019-04-28T12:50:06.490Z,15.80
2019-04-28T12:52:35.583Z,15.30
2019-04-28T12:55:05.793Z,15.00
2019-04-28T12:57:34.896Z,14.80
2019-04-28T13:00:22.515Z,14.60
2019-04-28T13:03:09.485Z,14.50
2019-04-28T13:05:39.900Z,14.70
2019-04-28T13:08:08.942Z,14.80
2019-04-28T13:10:37.559Z,15.00
2019-04-28T13:13:06.697Z,15.20
2019-04-28T13:15:36.270Z,15.20
2019-04-28T13:18:05.543Z,15.00
2019-04-28T13:20:34.489Z,15.10
2019-04-28T13:23:03.243Z,15.00
2019-04-28T13:25:32.268Z,15.10
2019-04-28T13:28:02.437Z,15.10
2019-04-28T13:30:32.454Z,15.20
2019-04-28T13:33:01.313Z,15.30
2019-04-28T13:35:30.007Z,15.50
2019-04-28T13:37:59.221Z,15.50
2019-04-28T13:40:31.154Z,15.60
2019-04-28T13:43:00.138Z,15.90
2019-04-28T13:45:29.947Z,16.00
2019-04-28T13:47:59.517Z,16.00
2019-04-28T13:50:30.103Z,16.10
2019-04-28T13:53:00.111Z,15.90
2019-04-28T13:55:30.536Z,16.10
2019-04-28T13:58:01.299Z,16.30
2019-04-28T14:00:46.768Z,16.60
2019-04-28T14:03:33.156Z,16.90
2019-04-28T14:06:03.746Z,17.40
2019-04-28T14:08:32.504Z,17.80
2019-04-28T14:11:01.474Z,17.70
2019-04-28T14:13:30.280Z,17.80
2019-04-28T14:15:59.197Z,17.70
2019-04-28T14:18:28.042Z,17.70
2019-04-28T14:20:56.931Z,17.70
2019-04-28T14:23:25.996Z,17.90
2019-04-28T14:25:54.490Z,18.20
2019-04-28T14:28:22.946Z,18.10
2019-04-28T14:30:51.333Z,18.10
2019-04-28T14:33:19.750Z,18.20
2019-04-28T14:35:48.165Z,18.40
2019-04-28T14:38:16.667Z,18.20
2019-04-28T14:40:45.409Z,18.30
2019-04-28T14:43:13.836Z,17.80
2019-04-28T14:45:42.334Z,17.80
2019-04-28T14:48:11.053Z,17.80
2019-04-28T14:50:40.011Z,17.60
2019-04-28T14:53:08.903Z,17.40
2019-04-28T14:55:37.767Z,17.20
2019-04-28T14:58:06.235Z,17.00
2019-04-28T15:00:36.678Z,17.10
2019-04-28T15:03:07.012Z,17.00
2019-04-28T15:05:46.479Z,16.80
2019-04-28T15:08:29.209Z,16.90
2019-04-28T15:11:09.042Z,16.80
2019-04-28T15:13:37.469Z,17.10
2019-04-28T15:16:05.945Z,17.20
2019-04-28T15:18:34.500Z,17.40
2019-04-28T15:21:03.064Z,17.30
2019-04-28T15:23:31.500Z,17.30
2019-04-28T15:26:00.095Z,17.30
2019-04-28T15:28:29.027Z,17.40
2019-04-28T15:30:57.937Z,17.30
2019-04-28T15:33:26.435Z,17.30
2019-04-28T15:35:54.830Z,17.50
2019-04-28T15:38:23.606Z,17.60
2019-04-28T15:40:52.032Z,17.60
2019-04-28T15:43:20.473Z,17.60
2019-04-28T15:45:48.878Z,17.80
2019-04-28T15:48:17.314Z,18.00
2019-04-28T15:50:46.050Z,18.20
2019-04-28T15:53:14.484Z,18.10
2019-04-28T15:55:47.212Z,18.10
2019-04-28T15:58:33.867Z,18.40
2019-04-28T16:01:02.487Z,18.80
2019-04-28T16:03:30.963Z,19.40
2019-04-28T16:06:00.094Z,20.10
2019-04-28T16:08:28.851Z,21.30
2019-04-28T16:10:57.376Z,22.30
2019-04-28T16:13:25.954Z,23.00
2019-04-28T16:15:54.428Z,23.90
2019-04-28T16:18:23.123Z,25.10
2019-04-28T16:20:51.544Z,26.20
2019-04-28T16:23:19.958Z,26.90
2019-04-28T16:25:48.348Z,27.70
2019-04-28T16:28:16.766Z,28.60
2019-04-28T16:30:45.506Z,29.10
2019-04-28T16:33:13.911Z,29.50
2019-04-28T16:35:42.327Z,29.40
2019-04-28T16:38:10.732Z,30.00
2019-04-28T16:40:39.675Z,30.50
2019-04-28T16:43:08.714Z,30.90
2019-04-28T16:45:37.500Z,31.10
2019-04-28T16:48:05.997Z,31.30
2019-04-28T16:50:34.479Z,30.80
2019-04-28T16:53:02.989Z,30.80
2019-04-28T16:55:33.222Z,30.40
2019-04-28T16:58:20.008Z,30.30
2019-04-28T17:00:56.016Z,30.10
2019-04-28T17:03:24.997Z,30.20
2019-04-28T17:05:53.389Z,30.20
2019-04-28T17:08:21.786Z,30.30
2019-04-28T17:10:50.479Z,30.50
2019-04-28T17:13:18.895Z,30.20
2019-04-28T17:15:47.304Z,30.20
2019-04-28T17:18:15.738Z,30.20
2019-04-28T17:20:44.397Z,30.20
2019-04-28T17:23:12.838Z,30.10
2019-04-28T17:25:41.547Z,30.10
2019-04-28T17:28:10.690Z,29.70
2019-04-28T17:30:39.139Z,29.40
2019-04-28T17:33:07.560Z,29.10
2019-04-28T17:35:36.050Z,28.50
2019-04-28T17:38:06.711Z,28.30
2019-04-28T17:40:34.767Z,27.80
2019-04-28T17:43:03.190Z,27.10
2019-04-28T17:45:31.628Z,26.40
2019-04-28T17:48:13.707Z,25.50
2019-04-28T17:50:45.108Z,24.70
2019-04-28T17:53:12.693Z,23.70
2019-04-28T17:55:41.392Z,22.90
2019-04-28T17:58:09.899Z,22.20
2019-04-28T18:00:42.603Z,21.60
2019-04-28T18:03:12.682Z,21.00
2019-04-28T18:05:54.763Z,20.40
2019-04-28T18:12:05.115Z,19.50
2019-04-28T18:14:33.997Z,19.00
2019-04-28T18:17:04.382Z,18.60
2019-04-28T18:19:32.889Z,18.30
2019-04-28T18:22:01.578Z,18.00
2019-04-28T18:24:30.490Z,17.70
2019-04-28T18:26:59.311Z,17.50
2019-04-28T18:29:27.827Z,17.20
2019-04-28T18:32:00.592Z,17.00
2019-04-28T18:34:33.998Z,16.80
2019-04-28T18:37:09.953Z,16.60
2019-04-28T18:39:56.732Z,16.40
2019-04-28T18:42:26.846Z,16.20
2019-04-28T18:44:55.290Z,16.00
2019-04-28T18:47:24.081Z,15.80
2019-04-28T18:49:52.499Z,15.60
2019-04-28T18:52:20.907Z,15.50
2019-04-28T18:54:49.312Z,15.40
2019-04-28T18:57:17.722Z,15.30
2019-04-28T18:59:46.132Z,15.20
2019-04-28T19:02:19.243Z,15.10
2019-04-28T19:04:48.409Z,14.90
2019-04-28T19:07:21.340Z,14.80
2019-04-28T19:09:51.384Z,14.70
2019-04-28T19:12:33.811Z,14.60
2019-04-28T19:15:20.541Z,14.50
2019-04-28T19:17:50.595Z,14.40
2019-04-28T19:20:18.988Z,14.20
2019-04-28T19:22:47.738Z,14.10
2019-04-28T19:25:16.124Z,14.00
2019-04-28T19:27:44.556Z,13.90
2019-04-28T19:30:13.128Z,13.80
2019-04-28T19:32:42.046Z,13.70
2019-04-28T19:35:10.599Z,13.70
2019-04-28T19:37:39.030Z,13.60
2019-04-28T19:40:08.101Z,13.30
2019-04-28T19:42:36.611Z,13.20
2019-04-28T19:45:07.817Z,13.20
2019-04-28T19:47:36.385Z,13.20
2019-04-28T19:50:06.901Z,13.20
2019-04-28T19:52:35.359Z,13.10
2019-04-28T19:55:10.903Z,13.00
2019-04-28T19:57:57.781Z,13.00
2019-04-28T20:00:28.125Z,12.90
2019-04-28T20:02:56.674Z,12.90
2019-04-28T20:05:25.149Z,12.80
2019-04-28T20:07:53.568Z,12.80
2019-04-28T20:10:21.993Z,12.70
2019-04-28T20:12:50.398Z,12.70
2019-04-28T20:15:18.871Z,12.70
2019-04-28T20:17:47.361Z,12.60
2019-04-28T20:20:16.054Z,12.60
2019-04-28T20:22:44.737Z,12.50
2019-04-28T20:25:13.358Z,12.50
2019-04-28T20:27:41.785Z,12.40
2019-04-28T20:30:11.274Z,12.30
2019-04-28T20:32:44.132Z,12.20
2019-04-28T20:35:16.088Z,12.10
2019-04-28T20:37:49.685Z,12.10
2019-04-28T20:40:28.805Z,12.10
2019-04-28T20:43:04.587Z,12.00
2019-04-28T20:45:33.009Z,11.90
2019-04-28T20:48:01.447Z,11.90
2019-04-28T20:50:30.009Z,11.80
2019-04-28T20:52:58.548Z,11.80
2019-04-28T20:55:27.197Z,11.70
2019-04-28T20:57:55.709Z,11.70
2019-04-28T21:00:24.110Z,11.60
2019-04-28T21:02:52.545Z,11.60
2019-04-28T21:05:20.940Z,11.30
2019-04-28T21:07:49.375Z,11.40
2019-04-28T21:10:17.867Z,11.30
2019-04-28T21:12:46.270Z,11.30
2019-04-28T21:15:14.870Z,11.30
2019-04-28T21:17:43.350Z,11.20
2019-04-28T21:20:11.830Z,11.20
2019-04-28T21:22:40.550Z,11.20
2019-04-28T21:25:09.384Z,11.10
2019-04-28T21:27:37.812Z,11.10
2019-04-28T21:30:07.819Z,11.00
2019-04-28T21:32:36.238Z,11.00
2019-04-28T21:35:05.059Z,11.00
2019-04-28T21:37:33.820Z,10.80
2019-04-28T21:40:02.704Z,10.80
2019-04-28T21:42:38.923Z,10.70
2019-04-28T21:45:23.476Z,10.70
2019-04-28T21:47:51.901Z,10.70
2019-04-28T21:50:20.625Z,10.60
2019-04-28T21:52:49.046Z,10.60
2019-04-28T21:55:17.472Z,10.50
2019-04-28T21:57:47.300Z,10.50
2019-04-28T22:00:17.872Z,10.50
2019-04-28T22:02:46.295Z,10.40
2019-04-28T22:05:14.777Z,10.40
2019-04-28T22:07:43.481Z,10.40
2019-04-28T22:10:11.988Z,10.30
2019-04-28T22:12:40.402Z,10.30
2019-04-28T22:15:09.160Z,10.20
2019-04-28T22:17:37.606Z,10.20
2019-04-28T22:20:07.196Z,10.10
2019-04-28T22:22:35.727Z,10.10
2019-04-28T22:25:13.438Z,10.00
2019-04-28T22:27:42.152Z,9.90
2019-04-28T22:30:12.409Z,9.80
2019-04-28T22:32:40.805Z,9.80
2019-04-28T22:35:09.584Z,9.80
2019-04-28T22:37:38.046Z,9.80
2019-04-28T22:40:08.047Z,9.70
2019-04-28T22:42:36.590Z,9.70
2019-04-28T22:45:06.983Z,9.70
2019-04-28T22:47:35.499Z,9.60
2019-04-28T22:50:07.360Z,9.50
2019-04-28T22:52:36.341Z,9.50
2019-04-28T22:55:14.370Z,9.50
2019-04-28T22:57:47.136Z,9.40
2019-04-28T23:00:38.681Z,9.40
2019-04-28T23:03:08.850Z,9.40
2019-04-28T23:05:37.442Z,9.30
2019-04-28T23:08:06.035Z,9.30
2019-04-28T23:10:34.528Z,9.20
2019-04-28T23:13:02.998Z,9.20
2019-04-28T23:15:31.429Z,9.20
2019-04-28T23:17:59.983Z,9.10
2019-04-28T23:20:30.090Z,9.10
2019-04-28T23:23:00.586Z,9.10
2019-04-28T23:25:29.604Z,9.10
2019-04-28T23:27:58.102Z,9.00
2019-04-28T23:30:35.569Z,9.00
2019-04-28T23:33:04.255Z,8.90
2019-04-28T23:35:32.837Z,8.80
2019-04-28T23:38:01.225Z,8.80
2019-04-28T23:40:29.831Z,8.80
2019-04-28T23:43:00.090Z,8.80
2019-04-28T23:45:28.527Z,8.70
2019-04-28T23:47:57.062Z,8.60
2019-04-28T23:50:33.476Z,8.60
2019-04-28T23:53:06.304Z,8.60
2019-04-28T23:55:34.773Z,8.50
2019-04-28T23:58:03.216Z,8.50
